Time;durP1;ratioP1;P1;durP2;ratioP2;P2;SDS_P1;SDS_P2;PMS_P1;PMS_P2;Temp;Humidity;BMP_temperature;BMP_pressure;BME280_temperature;BME280_humidity;BME280_pressure;Samples;Min_cycle;Max_cycle;Signal;HPM_P1;HPM_P2
2022/01/22 00:00:28;;;;;;;4.95;2.30;;;;;;;1.80;100.00;99484.56;4187665;28;20143;-72
2022/01/22 00:02:28;;;;;;;3.40;2.70;;;;;;;1.82;100.00;99493.25;4188300;28;20133;-72
2022/01/22 00:04:28;;;;;;;4.03;2.70;;;;;;;1.80;100.00;99499.00;4187574;28;20041;-71
2022/01/22 00:06:29;;;;;;;4.70;2.85;;;;;;;1.83;100.00;99489.44;4187992;28;20127;-72
2022/01/22 00:08:29;;;;;;;3.42;2.60;;;;;;;1.85;100.00;99481.75;4187180;28;20102;-72
2022/01/22 00:10:30;;;;;;;3.42;2.70;;;;;;;1.80;100.00;99479.91;4187916;28;20074;-72
2022/01/22 00:14:37;;;;;;;3.17;2.28;;;;;;;1.80;100.00;99490.00;4187207;28;20045;-71
2022/01/22 00:16:37;;;;;;;4.80;3.10;;;;;;;1.76;100.00;99486.28;4187209;28;20040;-71
2022/01/22 00:18:37;;;;;;;5.40;3.47;;;;;;;1.81;100.00;99491.63;4187828;28;20388;-71
2022/01/22 00:20:38;;;;;;;5.30;3.10;;;;;;;1.80;100.00;99482.63;4187984;28;20663;-71
2022/01/22 00:22:39;;;;;;;4.28;3.13;;;;;;;1.82;100.00;99487.78;4187620;28;20040;-71
2022/01/22 00:24:40;;;;;;;5.00;2.80;;;;;;;1.80;100.00;99479.91;4187967;28;20048;-71
2022/01/22 00:26:42;;;;;;;4.32;2.70;;;;;;;1.81;100.00;99481.53;4186556;28;20047;-71
2022/01/22 00:28:42;;;;;;;4.82;3.53;;;;;;;1.79;100.00;99486.47;4187393;28;20132;-71
2022/01/22 00:30:42;;;;;;;4.25;2.95;;;;;;;1.85;100.00;99482.56;4187278;28;20127;-71
2022/01/22 00:32:43;;;;;;;3.53;2.80;;;;;;;1.87;100.00;99469.44;4187772;28;20044;-72
2022/01/22 00:34:44;;;;;;;3.55;2.85;;;;;;;1.88;100.00;99470.25;4187016;28;20067;-72
2022/01/22 00:36:44;;;;;;;3.95;3.03;;;;;;;1.86;100.00;99475.19;4186677;28;20500;-72
2022/01/22 00:38:45;;;;;;;4.55;2.85;;;;;;;1.89;100.00;99477.31;4186667;28;20376;-71
2022/01/22 00:40:50;;;;;;;4.43;3.22;;;;;;;1.85;100.00;99468.94;4187824;28;20472;-71
2022/01/22 00:42:51;;;;;;;4.03;2.50;;;;;;;1.95;100.00;99465.22;4187484;28;20047;-71
2022/01/22 00:44:51;;;;;;;4.05;2.47;;;;;;;1.96;100.00;99483.22;4187316;28;20123;-71
2022/01/22 00:46:52;;;;;;;3.83;2.58;;;;;;;2.07;100.00;99483.84;4186856;28;20055;-71
2022/01/22 00:48:52;;;;;;;5.30;2.97;;;;;;;2.06;100.00;99476.78;4186704;28;20052;-72
2022/01/22 00:50:55;;;;;;;3.75;2.50;;;;;;;2.07;100.00;99498.34;4187063;28;20375;-71
2022/01/22 00:52:56;;;;;;;3.92;2.58;;;;;;;2.04;100.00;99498.13;4187012;28;20101;-71
2022/01/22 00:54:56;;;;;;;4.10;2.40;;;;;;;2.02;100.00;99489.41;4187870;28;20052;-71
2022/01/22 00:56:58;;;;;;;3.50;2.50;;;;;;;2.00;100.00;99489.72;4186618;28;20044;-71
2022/01/22 00:58:58;;;;;;;3.78;2.72;;;;;;;2.05;100.00;99503.28;4187136;28;20056;-71
2022/01/22 01:00:58;;;;;;;3.97;2.92;;;;;;;2.06;100.00;99498.63;4187528;28;20712;-71
2022/01/22 01:02:59;;;;;;;3.90;2.63;;;;;;;2.02;100.00;99505.78;4186634;28;20045;-71
2022/01/22 01:04:59;;;;;;;3.85;2.90;;;;;;;2.10;100.00;99510.59;4187244;28;20044;-71
2022/01/22 01:07:00;;;;;;;3.58;2.28;;;;;;;2.13;100.00;99508.06;4186948;28;20045;-71
2022/01/22 01:09:03;;;;;;;3.90;2.80;;;;;;;2.10;100.00;99505.13;4186644;28;20520;-71
2022/01/22 01:11:04;;;;;;;7.50;3.20;;;;;;;2.08;100.00;99510.06;4186696;28;20043;-71
2022/01/22 01:13:05;;;;;;;4.65;2.85;;;;;;;2.06;100.00;99504.88;4187346;28;20480;-71
2022/01/22 01:15:20;;;;;;;3.58;2.83;;;;;;;2.16;100.00;99507.47;4186486;28;20037;-71
2022/01/22 01:33:52;;;;;;;4.60;2.92;;;;;;;2.12;100.00;99508.34;4138321;28;20132;-72
2022/01/22 01:35:53;;;;;;;5.97;3.10;;;;;;;2.11;100.00;99529.38;4137369;28;20045;-71
2022/01/22 01:37:56;;;;;;;4.93;3.28;;;;;;;2.10;100.00;99524.22;4140264;28;20068;-71
2022/01/22 01:40:01;;;;;;;3.65;2.60;;;;;;;2.18;100.00;99510.72;4186241;28;20055;-71
2022/01/22 01:42:06;;;;;;;4.10;2.80;;;;;;;2.20;100.00;99526.81;4187102;28;20045;-72
2022/01/22 01:44:07;;;;;;;4.57;2.90;;;;;;;2.20;100.00;99524.88;4187605;28;20054;-72
2022/01/22 01:46:07;;;;;;;5.25;3.33;;;;;;;2.19;100.00;99523.25;4187542;28;20341;-72
2022/01/22 01:48:14;;;;;;;4.40;3.28;;;;;;;2.16;100.00;99523.88;4186681;28;20578;-72
2022/01/22 01:50:14;;;;;;;5.65;3.30;;;;;;;2.15;100.00;99518.69;4187816;28;20464;-72
2022/01/22 01:52:22;;;;;;;4.38;3.03;;;;;;;2.15;100.00;99516.78;4187379;28;20028;-72
2022/01/22 01:54:44;;;;;;;5.28;2.97;;;;;;;2.22;100.00;99519.13;4187376;28;20036;-72
2022/01/22 01:59:04;;;;;;;4.63;3.00;;;;;;;2.27;100.00;99524.50;4187420;28;20488;-72
2022/01/22 02:01:06;;;;;;;3.95;2.97;;;;;;;2.25;100.00;99524.00;4187474;28;20075;-71
2022/01/22 02:03:08;;;;;;;5.13;3.60;;;;;;;2.19;100.00;99517.78;4187147;28;20064;-71
2022/01/22 02:05:11;;;;;;;3.83;2.80;;;;;;;2.22;100.00;99514.47;4187133;28;20472;-72
2022/01/22 02:07:11;;;;;;;4.43;2.95;;;;;;;2.28;100.00;99517.13;4186721;28;20055;-72
2022/01/22 02:09:11;;;;;;;4.97;3.03;;;;;;;2.30;100.00;99515.69;4187005;28;20700;-72
2022/01/22 02:11:14;;;;;;;5.93;3.13;;;;;;;2.34;100.00;99510.47;4186970;28;20044;-72
2022/01/22 02:25:07;;;;;;;6.20;3.10;;;;;;;2.34;100.00;99505.00;4186688;28;20114;-71
2022/01/22 02:27:07;;;;;;;4.40;2.65;;;;;;;2.32;100.00;99499.00;4186253;28;20048;-72
2022/01/22 02:29:08;;;;;;;5.10;2.53;;;;;;;2.43;100.00;99504.03;4186302;28;20040;-72
2022/01/22 02:31:18;;;;;;;4.88;2.83;;;;;;;2.42;100.00;99507.88;4187216;28;20045;-72
2022/01/22 02:33:41;;;;;;;3.25;2.67;;;;;;;2.44;100.00;99508.38;4187027;28;20347;-72
2022/01/22 02:36:06;;;;;;;4.10;2.83;;;;;;;2.41;100.00;99499.97;4187086;28;20044;-72
2022/01/22 02:38:12;;;;;;;4.82;2.90;;;;;;;2.43;100.00;99516.88;4185305;28;20055;-72
2022/01/22 02:42:48;;;;;;;3.05;2.13;;;;;;;2.49;100.00;99491.91;4151142;28;20149;-72
2022/01/22 02:44:49;;;;;;;3.10;2.20;;;;;;;2.45;100.00;99501.81;4169140;28;20564;-72
2022/01/22 02:46:50;;;;;;;4.10;2.15;;;;;;;2.44;100.00;99507.56;4185947;28;20048;-72
2022/01/22 02:48:54;;;;;;;3.35;2.25;;;;;;;2.40;100.00;99503.78;4186407;28;20036;-72
2022/01/22 02:50:54;;;;;;;4.00;2.20;;;;;;;2.45;100.00;99509.19;4187039;28;20556;-72
2022/01/22 02:52:54;;;;;;;3.47;2.72;;;;;;;2.46;100.00;99499.88;4186152;28;20055;-72
2022/01/22 02:54:56;;;;;;;3.55;2.20;;;;;;;2.48;100.00;99503.09;4186302;28;20049;-72
2022/01/22 02:56:56;;;;;;;4.03;2.10;;;;;;;2.44;100.00;99507.56;4185740;28;20052;-72
2022/01/22 02:58:59;;;;;;;2.67;2.00;;;;;;;2.45;100.00;99522.84;4186192;28;20407;-72
2022/01/22 03:00:59;;;;;;;3.60;2.33;;;;;;;2.44;100.00;99494.72;4186184;28;20052;-72
2022/01/22 03:03:00;;;;;;;4.05;2.65;;;;;;;2.42;100.00;99504.34;4186589;28;20441;-72
2022/01/22 03:05:01;;;;;;;2.88;1.73;;;;;;;2.45;100.00;99506.44;4186911;28;20388;-72
2022/01/22 03:07:01;;;;;;;3.17;2.10;;;;;;;2.49;100.00;99521.97;4185757;28;20052;-72
2022/01/22 03:09:02;;;;;;;2.50;1.83;;;;;;;2.54;100.00;99512.84;4186149;28;20094;-72
2022/01/22 03:11:07;;;;;;;3.40;1.95;;;;;;;2.51;100.00;99513.47;4186180;28;20196;-72
2022/01/22 03:22:12;;;;;;;2.60;1.80;;;;;;;2.52;100.00;99510.41;4186601;28;20423;-72
2022/01/22 03:29:02;;;;;;;2.72;1.92;;;;;;;2.49;100.00;99519.22;4185768;28;20275;-72
2022/01/22 03:31:02;;;;;;;2.42;1.70;;;;;;;2.56;100.00;99529.75;4186550;28;20052;-72
2022/01/22 03:33:03;;;;;;;2.58;1.70;;;;;;;2.48;100.00;99530.44;4185935;28;20543;-72
2022/01/22 03:35:27;;;;;;;2.65;1.70;;;;;;;2.48;100.00;99534.00;4185896;28;20059;-72
2022/01/22 03:37:27;;;;;;;2.20;1.63;;;;;;;2.51;100.00;99527.94;4185158;28;20059;-72
2022/01/22 03:39:27;;;;;;;1.90;1.60;;;;;;;2.57;100.00;99517.72;4186120;28;20167;-72
2022/01/22 03:41:28;;;;;;;1.63;1.35;;;;;;;2.57;100.00;99528.66;4184716;28;20079;-72
2022/01/22 03:43:28;;;;;;;4.72;1.60;;;;;;;2.57;100.00;99522.38;4185988;28;20375;-72
2022/01/22 03:45:29;;;;;;;1.58;1.48;;;;;;;2.57;100.00;99520.47;4186235;28;20044;-71
2022/01/22 03:47:29;;;;;;;3.78;2.38;;;;;;;2.55;100.00;99533.59;4184985;28;20135;-72
2022/01/22 03:49:30;;;;;;;2.72;1.70;;;;;;;2.54;100.00;99543.72;4185759;28;20082;-72
2022/01/22 03:51:31;;;;;;;2.78;1.65;;;;;;;2.61;100.00;99548.78;4186022;28;20545;-71
2022/01/22 03:53:31;;;;;;;2.58;1.80;;;;;;;2.53;100.00;99542.09;4186002;28;20476;-72
2022/01/22 03:56:01;;;;;;;2.05;1.60;;;;;;;2.56;100.00;99553.53;4185726;28;20537;-72
2022/01/22 03:57:55;;;;;;;3.42;1.95;;;;;;;2.57;100.00;99555.97;4183780;28;20056;-72
2022/01/22 03:59:56;;;;;;;3.08;1.80;;;;;;;2.60;100.00;99549.91;4186139;28;20054;-72
2022/01/22 04:04:08;;;;;;;2.00;1.60;;;;;;;2.55;100.00;99563.63;4185865;28;20052;-72
2022/01/22 04:08:28;;;;;;;2.65;1.80;;;;;;;2.62;100.00;99561.34;4185485;28;20095;-72
2022/01/22 04:10:28;;;;;;;3.03;2.03;;;;;;;2.52;100.00;99561.53;4185929;28;20475;-72
2022/01/22 04:12:41;;;;;;;2.90;2.13;;;;;;;2.49;100.00;99564.84;4185223;28;20515;-72
2022/01/22 04:14:50;;;;;;;2.20;1.80;;;;;;;2.54;100.00;99568.28;4186047;28;20710;-72
2022/01/22 04:17:07;;;;;;;2.60;2.10;;;;;;;2.56;100.00;99575.38;4185175;28;20906;-72
2022/01/22 04:26:42;;;;;;;2.85;2.00;;;;;;;2.64;100.00;99561.03;4168286;28;20055;-72
2022/01/22 04:28:42;;;;;;;2.85;1.75;;;;;;;2.62;100.00;99558.59;4185323;28;20338;-72
2022/01/22 04:30:43;;;;;;;2.05;1.60;;;;;;;2.61;100.00;99564.38;4185432;28;20037;-72
2022/01/22 04:32:43;;;;;;;7.43;1.80;;;;;;;2.63;100.00;99573.88;4185657;28;20044;-72
2022/01/22 04:34:44;;;;;;;2.10;1.60;;;;;;;2.68;100.00;99573.81;4185517;28;20044;-72
2022/01/22 04:36:44;;;;;;;2.88;2.15;;;;;;;2.71;100.00;99570.47;4184570;28;20500;-72
2022/01/22 04:38:44;;;;;;;2.25;1.80;;;;;;;2.65;100.00;99563.50;4185334;28;20055;-72
2022/01/22 04:40:45;;;;;;;2.30;1.70;;;;;;;2.69;100.00;99563.69;4185196;28;20503;-72
2022/01/22 04:42:45;;;;;;;2.80;1.77;;;;;;;2.68;100.00;99575.75;4185207;28;20499;-72
2022/01/22 04:45:01;;;;;;;2.85;1.77;;;;;;;2.69;100.00;99569.97;4186404;28;20049;-72
2022/01/22 04:47:53;;;;;;;1.98;1.65;;;;;;;2.73;100.00;99578.38;4187311;28;20501;-72
2022/01/22 04:56:04;;;;;;;2.10;1.70;;;;;;;2.71;100.00;99588.78;4187562;28;20051;-72
2022/01/22 04:58:05;;;;;;;2.60;1.70;;;;;;;2.74;100.00;99589.03;4187509;28;20920;-71
2022/01/22 05:00:11;;;;;;;3.30;1.90;;;;;;;2.69;100.00;99588.28;4187432;28;20472;-72
2022/01/22 05:02:12;;;;;;;3.55;1.80;;;;;;;2.62;100.00;99588.66;4186699;28;20204;-72
2022/01/22 05:04:12;;;;;;;4.95;1.90;;;;;;;2.64;100.00;99585.63;4188461;28;20059;-72
2022/01/22 05:06:12;;;;;;;3.22;1.88;;;;;;;2.72;100.00;99590.41;4188171;28;20464;-72
2022/01/22 05:08:12;;;;;;;2.80;2.38;;;;;;;2.72;100.00;99588.47;4187678;28;20071;-72
2022/01/22 05:10:13;;;;;;;2.25;1.73;;;;;;;2.65;100.00;99588.09;4187995;28;20115;-72
2022/01/22 05:12:13;;;;;;;3.38;1.60;;;;;;;2.61;100.00;99580.78;4187945;28;20028;-72
2022/01/22 05:14:14;;;;;;;1.63;1.30;;;;;;;2.65;100.00;99585.34;4188547;28;20373;-72
2022/01/22 05:16:15;;;;;;;2.83;1.67;;;;;;;2.67;100.00;99585.84;4187335;28;20025;-72
2022/01/22 05:18:16;;;;;;;1.48;1.20;;;;;;;2.69;100.00;99578.16;4187259;28;20056;-72
2022/01/22 05:20:23;;;;;;;2.25;1.50;;;;;;;2.77;100.00;99572.00;4188313;28;20040;-72
2022/01/22 05:24:33;;;;;;;2.00;1.50;;;;;;;2.71;100.00;99584.13;4187022;28;20049;-72
2022/01/22 05:31:08;;;;;;;1.83;1.30;;;;;;;2.77;100.00;99607.53;4187288;28;20571;-72
2022/01/22 05:37:32;;;;;;;1.67;1.20;;;;;;;2.83;100.00;99610.19;4185727;28;20133;-72
2022/01/22 05:39:34;;;;;;;1.52;1.20;;;;;;;2.80;100.00;99617.06;4185696;28;20040;-72
2022/01/22 05:41:34;;;;;;;2.00;1.30;;;;;;;2.85;100.00;99621.63;4186258;28;20836;-72
2022/01/22 05:43:35;;;;;;;2.30;1.65;;;;;;;2.82;100.00;99623.06;4186300;28;20045;-72
2022/01/22 05:45:35;;;;;;;7.50;2.25;;;;;;;2.80;100.00;99630.72;4186866;28;20485;-72
2022/01/22 05:47:36;;;;;;;10.85;4.78;;;;;;;2.84;100.00;99631.75;4185555;28;20040;-72
2022/01/22 05:49:40;;;;;;;3.13;1.77;;;;;;;2.88;100.00;99629.22;4186984;28;20691;-72
2022/01/22 05:51:44;;;;;;;4.70;2.63;;;;;;;2.90;100.00;99624.31;4185655;28;20052;-72
2022/01/22 05:54:19;;;;;;;2.80;1.77;;;;;;;2.83;100.00;99621.13;4186447;28;20365;-72
2022/01/22 06:00:54;;;;;;;2.58;1.83;;;;;;;2.83;100.00;99627.41;4185369;28;20602;-72
2022/01/22 06:02:55;;;;;;;3.00;1.65;;;;;;;2.84;100.00;99628.22;4186235;28;20032;-72
2022/01/22 06:04:55;;;;;;;2.40;1.40;;;;;;;2.88;100.00;99626.50;4186333;28;20464;-72
2022/01/22 06:06:56;;;;;;;1.70;1.30;;;;;;;2.92;100.00;99628.34;4185174;28;20044;-72
2022/01/22 06:08:57;;;;;;;1.90;1.40;;;;;;;2.89;100.00;99633.59;4186499;28;20048;-72
2022/01/22 06:11:00;;;;;;;1.63;1.42;;;;;;;2.92;100.00;99641.22;4186140;28;20037;-71
2022/01/22 06:15:10;;;;;;;2.35;1.35;;;;;;;2.90;100.00;99643.44;4185017;28;19966;-72
2022/01/22 06:17:10;;;;;;;1.23;1.10;;;;;;;2.87;100.00;99644.81;4183898;28;20460;-72
2022/01/22 06:19:11;;;;;;;1.63;1.38;;;;;;;2.94;100.00;99652.66;4185545;28;20047;-72
2022/01/22 06:21:12;;;;;;;1.60;1.30;;;;;;;2.92;100.00;99643.94;4186103;28;20317;-72
2022/01/22 06:23:12;;;;;;;2.22;1.38;;;;;;;2.98;100.00;99653.66;4185382;28;20401;-72
2022/01/22 06:25:13;;;;;;;2.13;1.33;;;;;;;2.91;100.00;99647.78;4185453;28;20652;-72
2022/01/22 06:27:13;;;;;;;2.30;1.50;;;;;;;2.97;100.00;99652.84;4184868;28;20102;-72
2022/01/22 06:29:13;;;;;;;1.65;1.30;;;;;;;2.98;100.00;99654.50;4185642;28;20068;-72
2022/01/22 06:31:14;;;;;;;2.53;1.77;;;;;;;2.88;100.00;99659.31;4185802;28;20052;-72
2022/01/22 06:33:14;;;;;;;3.00;1.70;;;;;;;2.89;100.00;99667.19;4185713;28;20289;-72
2022/01/22 06:35:14;;;;;;;2.80;1.60;;;;;;;2.90;100.00;99660.66;4185700;28;20147;-72
2022/01/22 06:37:15;;;;;;;5.13;1.80;;;;;;;2.98;100.00;99670.91;4184035;28;20091;-72
2022/01/22 06:39:17;;;;;;;2.38;1.83;;;;;;;2.95;100.00;99670.66;4185635;28;20063;-71
2022/01/22 06:43:37;;;;;;;2.58;1.63;;;;;;;2.89;100.00;99674.59;4185657;28;19982;-72
2022/01/22 06:45:37;;;;;;;1.58;1.33;;;;;;;2.93;100.00;99670.16;4145510;27;20057;-72
2022/01/22 06:47:38;;;;;;;1.90;1.40;;;;;;;2.94;100.00;99672.59;4178678;28;20499;-72
2022/01/22 06:49:38;;;;;;;1.80;1.40;;;;;;;2.95;100.00;99676.94;4185391;28;20477;-72
2022/01/22 06:51:39;;;;;;;1.83;1.30;;;;;;;2.94;100.00;99682.72;4185006;28;20080;-72
2022/01/22 06:53:40;;;;;;;1.70;1.25;;;;;;;2.92;100.00;99677.56;4185507;28;20075;-72
2022/01/22 06:55:45;;;;;;;1.40;1.27;;;;;;;2.91;100.00;99675.94;4184251;28;20120;-72
2022/01/22 06:57:45;;;;;;;1.90;1.27;;;;;;;2.92;100.00;99682.22;4184570;28;20527;-72
2022/01/22 06:59:47;;;;;;;1.80;1.55;;;;;;;2.90;100.00;99682.53;4183456;28;20084;-72
2022/01/22 07:01:49;;;;;;;2.03;1.35;;;;;;;2.92;100.00;99688.50;4184541;28;20044;-72
2022/01/22 07:03:50;;;;;;;1.33;1.23;;;;;;;2.92;100.00;99687.69;4185132;28;20145;-72
2022/01/22 07:05:50;;;;;;;2.25;1.58;;;;;;;2.95;100.00;99687.06;4184358;28;20037;-72
2022/01/22 07:07:50;;;;;;;5.32;1.45;;;;;;;3.00;100.00;99697.94;4184131;28;20037;-72
2022/01/22 07:09:51;;;;;;;1.42;1.25;;;;;;;3.00;100.00;99692.47;4185151;28;20476;-72
2022/01/22 07:11:51;;;;;;;1.60;1.38;;;;;;;2.99;100.00;99693.59;4185160;28;20055;-72
2022/01/22 07:13:52;;;;;;;1.30;1.20;;;;;;;3.03;100.00;99694.59;4185134;28;20063;-72
2022/01/22 07:15:52;;;;;;;1.40;1.30;;;;;;;3.00;100.00;99696.00;4185443;28;20068;-72
2022/01/22 07:17:54;;;;;;;2.10;1.60;;;;;;;2.96;100.00;99694.97;4184885;28;20042;-72
2022/01/22 07:19:54;;;;;;;1.83;1.58;;;;;;;2.95;100.00;99700.75;4185176;28;20044;-72
2022/01/22 07:22:08;;;;;;;2.10;1.70;;;;;;;2.91;100.00;99714.22;4185224;28;20445;-72
2022/01/22 07:24:26;;;;;;;2.40;1.88;;;;;;;2.96;100.00;99707.81;4184537;28;20033;-72
2022/01/22 07:26:26;;;;;;;4.55;2.25;;;;;;;2.99;100.00;99708.06;4185107;28;20215;-72
2022/01/22 07:28:27;;;;;;;2.90;2.17;;;;;;;2.98;100.00;99706.44;4184402;28;20036;-71
2022/01/22 07:30:27;;;;;;;1.77;1.60;;;;;;;2.93;100.00;99700.25;4184558;28;20102;-72
2022/01/22 07:32:34;;;;;;;2.72;2.03;;;;;;;2.98;100.00;99695.50;4186200;28;20139;-72
2022/01/22 07:34:34;;;;;;;3.95;2.40;;;;;;;2.99;100.00;99707.25;4185110;28;20049;-72
2022/01/22 07:36:34;;;;;;;8.13;6.25;;;;;;;2.93;100.00;99717.44;4185376;28;20383;-72
2022/01/22 07:38:38;;;;;;;5.07;3.75;;;;;;;2.98;100.00;99711.91;4185344;28;20770;-72
2022/01/22 07:40:38;;;;;;;4.07;3.67;;;;;;;2.93;100.00;99711.16;4186256;28;20045;-72
2022/01/22 07:42:40;;;;;;;5.13;4.28;;;;;;;2.91;100.00;99716.13;4186217;28;20330;-72
2022/01/22 07:44:40;;;;;;;4.00;3.10;;;;;;;2.94;100.00;99719.06;4186591;28;20114;-71
2022/01/22 07:46:40;;;;;;;3.47;3.15;;;;;;;2.96;100.00;99708.63;4185256;28;20141;-71
2022/01/22 07:48:40;;;;;;;4.97;3.28;;;;;;;2.95;100.00;99707.03;4185688;28;20048;-72
2022/01/22 07:50:41;;;;;;;4.93;3.72;;;;;;;3.01;100.00;99713.22;4186151;28;20056;-72
2022/01/22 07:52:41;;;;;;;3.55;2.63;;;;;;;3.00;100.00;99722.53;4185088;28;20049;-72
2022/01/22 07:54:41;;;;;;;3.95;3.45;;;;;;;2.97;100.00;99723.13;4184695;28;20102;-72
2022/01/22 07:56:42;;;;;;;5.78;4.20;;;;;;;2.97;100.00;99726.66;4184760;28;20067;-71
2022/01/22 07:58:42;;;;;;;3.25;2.58;;;;;;;3.04;100.00;99729.03;4185400;28;20421;-71
2022/01/22 08:00:42;;;;;;;3.25;2.50;;;;;;;3.02;100.00;99737.53;4185227;28;20185;-71
2022/01/22 08:02:44;;;;;;;2.53;2.17;;;;;;;3.07;100.00;99733.91;4185110;28;20110;-71
2022/01/22 08:04:44;;;;;;;3.95;2.42;;;;;;;3.09;100.00;99734.44;4185831;28;20498;-71
2022/01/22 08:06:44;;;;;;;3.03;2.53;;;;;;;3.08;100.00;99738.28;4184924;28;20101;-71
2022/01/22 08:08:44;;;;;;;2.53;2.10;;;;;;;3.05;100.00;99736.13;4185652;28;20367;-71
2022/01/22 08:10:45;;;;;;;2.92;1.92;;;;;;;3.14;100.00;99737.06;4185887;28;20469;-71
2022/01/22 08:12:49;;;;;;;3.75;2.85;;;;;;;3.19;100.00;99738.91;4185320;28;20048;-71
2022/01/22 08:14:50;;;;;;;1.90;1.60;;;;;;;3.16;100.00;99736.78;4185731;28;20043;-71
2022/01/22 08:16:50;;;;;;;2.78;2.50;;;;;;;3.14;100.00;99750.72;4185021;28;21020;-72
2022/01/22 08:18:51;;;;;;;2.45;1.77;;;;;;;3.15;100.00;99746.09;4185353;28;20113;-72
2022/01/22 08:20:51;;;;;;;2.42;1.85;;;;;;;3.19;100.00;99745.19;4188172;28;20150;-72
2022/01/22 08:22:53;;;;;;;3.45;2.13;;;;;;;3.20;100.00;99749.56;4189006;28;20099;-72
2022/01/22 08:24:55;;;;;;;1.92;1.50;;;;;;;3.12;100.00;99742.03;4189267;28;20200;-72
2022/01/22 08:29:11;;;;;;;2.40;1.80;;;;;;;3.14;100.00;99748.00;4188764;28;20564;-72
2022/01/22 08:31:26;;;;;;;1.70;1.42;;;;;;;3.19;100.00;99756.13;4189564;28;20040;-72
2022/01/22 08:35:52;;;;;;;2.97;2.03;;;;;;;3.24;100.00;99756.06;4188539;28;20048;-72
2022/01/22 08:35:53;;;;;;;3.33;2.50;;;;;;;3.21;100.00;99756.66;4187863;28;20078;-71
2022/01/22 08:37:54;;;;;;;3.88;2.42;;;;;;;3.22;100.00;99760.19;4188088;28;20533;-71
2022/01/22 08:39:54;;;;;;;2.53;1.70;;;;;;;3.25;100.00;99752.22;4187899;28;20044;-71
2022/01/22 08:41:55;;;;;;;5.55;3.30;;;;;;;3.24;100.00;99761.53;4188547;28;20470;-71
2022/01/22 08:43:57;;;;;;;4.45;3.33;;;;;;;3.28;100.00;99765.28;4188676;28;20821;-71
2022/01/22 08:45:58;;;;;;;7.28;4.22;;;;;;;3.25;100.00;99765.88;4188550;28;20454;-71
2022/01/22 08:47:58;;;;;;;6.60;4.43;;;;;;;3.24;100.00;99769.75;4186642;28;20127;-72
2022/01/22 08:49:58;;;;;;;15.90;7.18;;;;;;;3.23;100.00;99770.03;4188098;28;20044;-72
2022/01/22 08:52:00;;;;;;;3.95;3.03;;;;;;;3.18;100.00;99767.38;4188759;28;20048;-72
2022/01/22 08:54:01;;;;;;;3.40;2.10;;;;;;;3.19;100.00;99767.06;4188194;28;20056;-71
2022/01/22 08:56:02;;;;;;;5.35;3.25;;;;;;;3.30;100.00;99762.25;4187253;28;20099;-71
2022/01/22 08:58:03;;;;;;;13.07;6.85;;;;;;;3.28;100.00;99759.81;4188333;28;20321;-71
2022/01/22 09:00:06;;;;;;;10.07;5.47;;;;;;;3.30;100.00;99756.78;4188541;28;20487;-71
2022/01/22 09:02:06;;;;;;;11.88;6.78;;;;;;;3.26;100.00;99764.78;4188123;28;20028;-72
2022/01/22 09:04:06;;;;;;;9.60;4.18;;;;;;;3.28;100.00;99762.53;4187499;28;20453;-72
2022/01/22 09:06:07;;;;;;;10.45;5.53;;;;;;;3.29;100.00;99775.09;4188632;28;20051;-71
2022/01/22 09:08:08;;;;;;;6.85;4.60;;;;;;;3.34;100.00;99775.03;4187650;28;20310;-72
2022/01/22 09:10:08;;;;;;;15.68;6.30;;;;;;;3.31;100.00;99770.19;4187938;28;20025;-72
2022/01/22 09:12:09;;;;;;;3.63;2.40;;;;;;;3.38;100.00;99769.78;4188206;28;20036;-71
2022/01/22 09:14:12;;;;;;;3.30;3.00;;;;;;;3.33;100.00;99773.41;4187917;28;20036;-71
2022/01/22 09:16:12;;;;;;;3.67;2.45;;;;;;;3.38;100.00;99778.78;4185157;28;20063;-71
2022/01/22 09:18:13;;;;;;;10.68;6.47;;;;;;;3.35;100.00;99781.31;4186737;28;20052;-72
2022/01/22 09:20:30;;;;;;;5.18;3.60;;;;;;;3.40;100.00;99774.97;4187095;28;20052;-72
2022/01/22 09:22:30;;;;;;;4.65;3.42;;;;;;;3.40;100.00;99780.44;4187329;28;20399;-72
2022/01/22 09:24:30;;;;;;;2.47;2.28;;;;;;;3.45;100.00;99778.41;4186692;28;20071;-72
2022/01/22 09:26:31;;;;;;;2.65;2.00;;;;;;;3.40;100.00;99772.22;4187236;28;20091;-72
2022/01/22 09:28:34;;;;;;;4.13;2.25;;;;;;;3.47;100.00;99789.84;4186953;28;20045;-72
2022/01/22 09:30:35;;;;;;;3.17;2.75;;;;;;;3.43;100.00;99788.03;4186827;28;20739;-71
2022/01/22 09:32:35;;;;;;;3.40;2.70;;;;;;;3.52;100.00;99788.97;4187584;28;20083;-71
2022/01/22 09:34:36;;;;;;;4.95;3.50;;;;;;;3.45;100.00;99794.00;4187828;28;20387;-71
2022/01/22 09:36:36;;;;;;;5.90;3.90;;;;;;;3.46;100.00;99792.91;4186391;28;20049;-71
2022/01/22 09:38:37;;;;;;;5.03;2.60;;;;;;;3.41;100.00;99793.00;4187731;28;20072;-72
2022/01/22 09:40:38;;;;;;;16.17;8.82;;;;;;;3.44;100.00;99798.69;4187166;28;20283;-72
2022/01/22 09:42:39;;;;;;;13.10;7.07;;;;;;;3.41;100.00;99812.97;4187401;28;20420;-72
2022/01/22 09:44:42;;;;;;;16.83;8.35;;;;;;;3.47;100.00;99800.81;4186654;28;20080;-71
2022/01/22 09:46:45;;;;;;;25.63;10.90;;;;;;;3.48;100.00;99801.66;4185678;28;20049;-71
2022/01/22 09:48:48;;;;;;;6.43;3.90;;;;;;;3.56;100.00;99803.69;4187441;28;20141;-72
2022/01/22 09:50:49;;;;;;;6.88;5.10;;;;;;;3.53;100.00;99805.09;4187706;28;20149;-72
2022/01/22 09:52:50;;;;;;;8.02;4.75;;;;;;;3.60;100.00;99802.78;4187334;28;20044;-72
2022/01/22 09:54:50;;;;;;;5.18;3.80;;;;;;;3.64;100.00;99809.31;4187277;28;20056;-72
2022/01/22 09:56:51;;;;;;;13.93;10.63;;;;;;;3.65;100.00;99810.91;4185896;28;20047;-72
2022/01/22 09:58:51;;;;;;;4.13;2.53;;;;;;;3.65;100.00;99812.84;4185830;28;20098;-72
2022/01/22 10:00:51;;;;;;;3.05;2.28;;;;;;;3.69;100.00;99815.78;4184612;28;20801;-72
2022/01/22 10:02:57;;;;;;;20.05;9.80;;;;;;;3.67;100.00;99813.34;4185818;28;20127;-72
2022/01/22 10:04:58;;;;;;;7.80;5.10;;;;;;;3.64;100.00;99817.50;4186263;28;20080;-72
2022/01/22 10:06:58;;;;;;;11.73;6.78;;;;;;;3.65;100.00;99804.63;4186073;28;20353;-72
2022/01/22 10:09:24;;;;;;;9.65;6.57;;;;;;;3.71;100.00;99819.03;4184690;28;20037;-72
2022/01/22 10:11:27;;;;;;;6.25;4.13;;;;;;;3.70;100.00;99822.88;4186749;28;20048;-72
2022/01/22 10:13:37;;;;;;;6.15;3.42;;;;;;;3.69;100.00;99818.53;4186069;28;20504;-72
2022/01/22 10:15:39;;;;;;;2.78;2.10;;;;;;;3.73;100.00;99811.34;4186452;28;20048;-72
2022/01/22 10:17:40;;;;;;;3.65;2.58;;;;;;;3.74;100.00;99818.44;4185586;28;20048;-72
2022/01/22 10:19:41;;;;;;;2.70;2.20;;;;;;;3.73;100.00;99816.81;4187350;28;20063;-72
2022/01/22 10:21:43;;;;;;;2.45;1.98;;;;;;;3.77;100.00;99810.44;4186902;28;20131;-72
2022/01/22 10:23:43;;;;;;;2.15;1.63;;;;;;;3.77;100.00;99821.38;4186891;28;20053;-72
2022/01/22 10:25:50;;;;;;;2.17;1.55;;;;;;;3.74;100.00;99804.75;4187433;28;20594;-72
2022/01/22 10:27:57;;;;;;;2.42;1.90;;;;;;;3.81;100.00;99816.94;4186136;28;20155;-71
2022/01/22 10:30:01;;;;;;;3.22;2.05;;;;;;;3.84;100.00;99816.34;4186947;28;20928;-71
2022/01/22 10:32:03;;;;;;;4.30;2.22;;;;;;;3.77;100.00;99804.16;4186460;28;20707;-71
2022/01/22 10:34:09;;;;;;;3.13;2.20;;;;;;;3.77;100.00;99813.16;4185803;28;20060;-71
2022/01/22 10:36:14;;;;;;;3.33;2.00;;;;;;;3.79;100.00;99813.69;4185151;28;20476;-72
2022/01/22 10:38:17;;;;;;;4.88;2.70;;;;;;;3.75;100.00;99811.84;4185098;28;20427;-72
2022/01/22 10:40:25;;;;;;;4.05;1.90;;;;;;;3.76;100.00;99808.00;4185677;28;20328;-72
2022/01/22 10:42:27;;;;;;;3.50;2.10;;;;;;;3.81;100.00;99819.69;4183753;28;20408;-72
2022/01/22 10:44:46;;;;;;;5.60;2.83;;;;;;;3.82;100.00;99810.34;4184495;28;20171;-72
2022/01/22 10:47:02;;;;;;;7.88;4.13;;;;;;;3.87;100.00;99823.13;4183808;28;20102;-72
2022/01/22 10:49:06;;;;;;;4.85;2.72;;;;;;;3.98;100.00;99821.03;4185172;28;20052;-72
2022/01/22 10:51:12;;;;;;;11.45;5.30;;;;;;;3.90;100.00;99828.03;4185646;28;20468;-72
2022/01/22 10:53:13;;;;;;;15.73;8.63;;;;;;;3.88;100.00;99822.00;4185664;28;20339;-71
2022/01/22 10:55:14;;;;;;;12.93;8.75;;;;;;;3.92;100.00;99826.59;4184775;28;20037;-71
2022/01/22 10:57:25;;;;;;;5.68;3.00;;;;;;;3.87;100.00;99810.25;4183308;28;20084;-72
2022/01/22 10:59:25;;;;;;;3.40;1.95;;;;;;;3.87;100.00;99828.59;4183494;28;20131;-72
2022/01/22 11:01:31;;;;;;;7.85;3.63;;;;;;;3.89;100.00;99829.13;4186289;28;20109;-72
2022/01/22 11:03:32;;;;;;;4.80;2.53;;;;;;;3.95;100.00;99822.44;4185159;28;20055;-72
2022/01/22 11:05:38;;;;;;;7.40;4.18;;;;;;;4.01;100.00;99829.44;4186251;28;20062;-72